PWSweather.com
Personal Weather Stations
Station Observations

OlomoucCZ

Lat: 49.5936202181, Lon: 17.2276005149

Elevation: 752

Station Type: Davis Vantage Pro 2 Activ

http://infopocasi-olomouc.cz

High Low Average
Temperature 29.8°F-1.2°C 18.1°F-7.7°C 23.5°F-4.7°C
Dew Point 23.8°F-4.6°C 16.7°F-8.5°C 20.4°F-6.4°C
Winds 5.8 mph 9.3 kmh Calm Calm 3.0 mph WSW4.8 kmh WSW
Wind Gusts 9.2 mph14.8 kmh 1.2 mph1.9 kmh 4.0 mph6.4 kmh
Humidity 94% 78% 88%
Pressure 30.21 in1023.0 mb 30.11 in1019.6 mb -
Precipitation 0.00 in0.0 mm - -
Hour Temp Dew Point Humidity Winds Wind Gusts Pressure Precip Precip Rate Daily Precip Total
12:00 AM 23.9°F-4.5°C 20.4°F-6.4°C 86% 3.5 mph NW5.6 kmh NW 3.5 mph5.6 kmh 30.14 in1020.7 mb - 0.00 in0.0 mm 0.00 in0.0 mm
12:30 AM 24.2°F-4.3°C 20.9°F-6.2°C 87% 3.5 mph W5.6 kmh W 3.5 mph5.6 kmh 30.14 in1020.7 mb - 0.00 in0.0 mm 0.00 in0.0 mm
01:00 AM 24.5°F-4.2°C 21.2°F-6.0°C 87% 4.6 mph WNW7.4 kmh WNW 5.8 mph9.3 kmh 30.14 in1020.7 mb - 0.00 in0.0 mm 0.00 in0.0 mm
01:30 AM 23.6°F-4.7°C 20.3°F-6.5°C 87% 4.6 mph WNW7.4 kmh WNW 6.9 mph11.1 kmh 30.15 in1021.0 mb - 0.00 in0.0 mm 0.00 in0.0 mm
02:00 AM 22.9°F-5.1°C 20.1°F-6.6°C 89% 5.8 mph NW9.3 kmh NW 9.2 mph14.8 kmh 30.15 in1021.0 mb - 0.00 in0.0 mm 0.00 in0.0 mm
02:30 AM 23.3°F-4.8°C 20.3°F-6.5°C 88% 4.6 mph WNW7.4 kmh WNW 6.9 mph11.1 kmh 30.16 in1021.3 mb - 0.00 in0.0 mm 0.00 in0.0 mm
03:00 AM 22.4°F-5.3°C 19.4°F-7.0°C 88% 2.3 mph W3.7 kmh W 3.5 mph5.6 kmh 30.16 in1021.3 mb - 0.00 in0.0 mm 0.00 in0.0 mm
03:30 AM 22.5°F-5.3°C 19.5°F-6.9°C 88% 3.5 mph W5.6 kmh W 6.9 mph11.1 kmh 30.16 in1021.3 mb - 0.00 in0.0 mm 0.00 in0.0 mm
04:00 AM 22.3°F-5.4°C 19.3°F-7.1°C 88% 5.8 mph W9.3 kmh W 8.1 mph13.0 kmh 30.17 in1021.7 mb - 0.00 in0.0 mm 0.00 in0.0 mm
04:30 AM 21.9°F-5.6°C 19.2°F-7.1°C 89% 3.5 mph WNW5.6 kmh WNW 4.6 mph7.4 kmh 30.17 in1021.7 mb - 0.00 in0.0 mm 0.00 in0.0 mm
05:00 AM 21.3°F-5.9°C 18.6°F-7.4°C 89% 4.6 mph NW7.4 kmh NW 6.9 mph11.1 kmh 30.17 in1021.7 mb - 0.00 in0.0 mm 0.00 in0.0 mm
05:30 AM 21.5°F-5.8°C 18.8°F-7.3°C 89% 3.5 mph WNW5.6 kmh WNW 4.6 mph7.4 kmh 30.17 in1021.7 mb - 0.00 in0.0 mm 0.00 in0.0 mm
06:00 AM 20.4°F-6.4°C 17.7°F-7.9°C 89% 2.3 mph NW3.7 kmh NW 3.5 mph5.6 kmh 30.17 in1021.7 mb - 0.00 in0.0 mm 0.00 in0.0 mm
06:30 AM 19.5°F-6.9°C 17.1°F-8.3°C 90% 3.5 mph NW5.6 kmh NW 3.5 mph5.6 kmh 30.18 in1022.0 mb - 0.00 in0.0 mm 0.00 in0.0 mm
07:00 AM 19.6°F-6.9°C 17.4°F-8.1°C 91% 2.3 mph NW3.7 kmh NW 3.5 mph5.6 kmh 30.18 in1022.0 mb - 0.00 in0.0 mm 0.00 in0.0 mm
07:30 AM 19.7°F-6.8°C 17.2°F-8.2°C 90% 2.3 mph NW3.7 kmh NW 3.5 mph5.6 kmh 30.19 in1022.4 mb - 0.00 in0.0 mm 0.00 in0.0 mm
08:00 AM 19.1°F-7.2°C 16.7°F-8.5°C 90% 2.3 mph NW3.7 kmh NW 3.5 mph5.6 kmh 30.19 in1022.4 mb - 0.00 in0.0 mm 0.00 in0.0 mm
08:30 AM 19.6°F-6.9°C 17.4°F-8.1°C 91% 2.3 mph NW3.7 kmh NW 3.5 mph5.6 kmh 30.20 in1022.7 mb - 0.00 in0.0 mm 0.00 in0.0 mm
09:00 AM 21.3°F-5.9°C 18.3°F-7.6°C 88% 4.6 mph NW7.4 kmh NW 6.9 mph11.1 kmh 30.20 in1022.7 mb - 0.00 in0.0 mm 0.00 in0.0 mm
09:30 AM 22.2°F-5.4°C 18.9°F-7.3°C 87% 3.5 mph NW5.6 kmh NW 4.6 mph7.4 kmh 30.21 in1023.0 mb - 0.00 in0.0 mm 0.00 in0.0 mm
10:00 AM 23.7°F-4.6°C 20.4°F-6.4°C 87% 1.2 mph NW1.9 kmh NW 3.5 mph5.6 kmh 30.21 in1023.0 mb - 0.00 in0.0 mm 0.00 in0.0 mm
10:30 AM 24.5°F-4.2°C 20.9°F-6.2°C 86% 1.2 mph NW1.9 kmh NW 1.2 mph1.9 kmh 30.21 in1023.0 mb - 0.00 in0.0 mm 0.00 in0.0 mm
11:00 AM 25.7°F-3.5°C 22.1°F-5.5°C 86% 3.5 mph NW5.6 kmh NW 3.5 mph5.6 kmh 30.21 in1023.0 mb - 0.00 in0.0 mm 0.00 in0.0 mm
11:30 AM 26.9°F-2.8°C 23.0°F-5.0°C 85% 3.5 mph N5.6 kmh N 3.5 mph5.6 kmh 30.20 in1022.7 mb - 0.00 in0.0 mm 0.00 in0.0 mm
12:00 PM 27.3°F-2.6°C 22.8°F-5.1°C 83% 1.2 mph NW1.9 kmh NW 2.3 mph3.7 kmh 30.19 in1022.4 mb - 0.00 in0.0 mm 0.00 in0.0 mm
12:30 PM 28.4°F-2.0°C 23.6°F-4.7°C 82% 2.3 mph N3.7 kmh N 3.5 mph5.6 kmh 30.18 in1022.0 mb - 0.00 in0.0 mm 0.00 in0.0 mm
01:00 PM 28.8°F-1.8°C 23.4°F-4.8°C 80% 3.5 mph NW5.6 kmh NW 3.5 mph5.6 kmh 30.17 in1021.7 mb - 0.00 in0.0 mm 0.00 in0.0 mm
01:30 PM 29.0°F-1.7°C 23.6°F-4.7°C 80% 2.3 mph WNW3.7 kmh WNW 3.5 mph5.6 kmh 30.17 in1021.7 mb - 0.00 in0.0 mm 0.00 in0.0 mm
02:00 PM 29.2°F-1.6°C 23.8°F-4.6°C 80% 1.2 mph NW1.9 kmh NW 2.3 mph3.7 kmh 30.16 in1021.3 mb - 0.00 in0.0 mm 0.00 in0.0 mm
02:30 PM 29.4°F-1.4°C 23.7°F-4.6°C 79% 1.2 mph NW1.9 kmh NW 2.3 mph3.7 kmh 30.15 in1021.0 mb - 0.00 in0.0 mm 0.00 in0.0 mm
03:00 PM 29.8°F-1.2°C 23.8°F-4.6°C 78% 2.3 mph SSW3.7 kmh SSW 3.5 mph5.6 kmh 30.14 in1020.7 mb - 0.00 in0.0 mm 0.00 in0.0 mm
03:30 PM 29.4°F-1.4°C 23.6°F-4.7°C 79% 1.2 mph SSE1.9 kmh SSE 1.2 mph1.9 kmh 30.13 in1020.3 mb - 0.00 in0.0 mm 0.00 in0.0 mm
04:00 PM 28.9°F-1.7°C 23.5°F-4.7°C 80% 1.2 mph S1.9 kmh S 2.3 mph3.7 kmh 30.13 in1020.3 mb - 0.00 in0.0 mm 0.00 in0.0 mm
04:30 PM 28.3°F-2.1°C 23.8°F-4.6°C 83% 2.3 mph SE3.7 kmh SE 3.5 mph5.6 kmh 30.13 in1020.3 mb - 0.00 in0.0 mm 0.00 in0.0 mm
05:00 PM 27.3°F-2.6°C 23.7°F-4.6°C 86% 5.8 mph SE9.3 kmh SE 6.9 mph11.1 kmh 30.13 in1020.3 mb - 0.00 in0.0 mm 0.00 in0.0 mm
05:30 PM 26.1°F-3.3°C 23.0°F-5.0°C 88% 5.8 mph SE9.3 kmh SE 6.9 mph11.1 kmh 30.13 in1020.3 mb - 0.00 in0.0 mm 0.00 in0.0 mm
06:00 PM 25.1°F-3.8°C 22.6°F-5.2°C 90% 4.6 mph ESE7.4 kmh ESE 3.5 mph5.6 kmh 30.13 in1020.3 mb - 0.00 in0.0 mm 0.00 in0.0 mm
06:30 PM 24.3°F-4.3°C 22.1°F-5.5°C 91% 2.3 mph SE3.7 kmh SE 3.5 mph5.6 kmh 30.13 in1020.3 mb - 0.00 in0.0 mm 0.00 in0.0 mm
07:00 PM 23.6°F-4.7°C 21.4°F-5.9°C 91% 3.5 mph ESE5.6 kmh ESE 3.5 mph5.6 kmh 30.13 in1020.3 mb - 0.00 in0.0 mm 0.00 in0.0 mm
07:30 PM 21.9°F-5.6°C 20.0°F-6.7°C 92% 2.3 mph SE3.7 kmh SE 3.5 mph5.6 kmh 30.13 in1020.3 mb - 0.00 in0.0 mm 0.00 in0.0 mm
08:00 PM 21.1°F-6.1°C 19.4°F-7.0°C 93% 1.2 mph SE1.9 kmh SE 2.3 mph3.7 kmh 30.13 in1020.3 mb - 0.00 in0.0 mm 0.00 in0.0 mm
08:30 PM 20.7°F-6.3°C 19.0°F-7.2°C 93% 2.3 mph SE3.7 kmh SE 3.5 mph5.6 kmh 30.12 in1020.0 mb - 0.00 in0.0 mm 0.00 in0.0 mm
09:00 PM 20.2°F-6.6°C 18.5°F-7.5°C 93% 1.2 mph SE1.9 kmh SE 2.3 mph3.7 kmh 30.12 in1020.0 mb - 0.00 in0.0 mm 0.00 in0.0 mm
09:30 PM 19.9°F-6.7°C 18.5°F-7.5°C 94% 1.2 mph SE1.9 kmh SE 2.3 mph3.7 kmh 30.12 in1020.0 mb - 0.00 in0.0 mm 0.00 in0.0 mm
10:00 PM 19.4°F-7.0°C 18.0°F-7.8°C 94% 1.2 mph SW1.9 kmh SW 2.3 mph3.7 kmh 30.12 in1020.0 mb - 0.00 in0.0 mm 0.00 in0.0 mm
10:30 PM 18.7°F-7.4°C 17.0°F-8.3°C 93% Calm Calm 2.3 mph3.7 kmh 30.13 in1020.3 mb - 0.00 in0.0 mm 0.00 in0.0 mm
11:00 PM 18.4°F-7.6°C 17.0°F-8.3°C 94% Calm Calm 1.2 mph1.9 kmh 30.12 in1020.0 mb - 0.00 in0.0 mm 0.00 in0.0 mm
11:30 PM 18.1°F-7.7°C 16.7°F-8.5°C 94% 2.3 mph SE3.7 kmh SE 3.5 mph5.6 kmh 30.11 in1019.6 mb - 0.00 in0.0 mm 0.00 in0.0 mm